»·PEaware :: N434EP KRIF-KGCN

N434EP :: KRIF-KGCN

FLIGHT INFORMATION

Flight Status: Arrived
Operator: Privately registered:
United States
More flights under this callsign
Pilot: Drew H. (3199)
Aircraft: CESSNA 208 CARAVAN
(C208)
More flights by this aircraft type
Origin: KRIF Richfield Mun
United States
Destination: KGCN Grand Canyon Natl Park
United States
More flights between these airports :: More routes between these airports
Route:
File this flight plan on PilotEdge
Remarks:
Altitude:
(Current/Filed)
11,500ft
Speed:
(Current/Filed)
160kts
Departed: 28-Feb-17 05:38 PM
Arrived: 28-Feb-17 06:55 PM
Distance/Time
Traveled:
167nm/1:17
Distance/Time
To Go:
Arrived

Flight Plot

Page will automatically refresh every two minutes.

Flight plan parsing failed; only flown route is shown


Map Options




Map Legend


Flown Route
Filed Route
Departure Airport
Arrival Airport
Navaid (VOR, NDB)
Fix

Horizontal Profiles

Position Reports

Time Latitude Longitude Heading Altitude Ground
Speed
28-Feb-17 17:32 38.744431 -112.093620 291 5306ft 0kts
28-Feb-17 17:33 38.744431 -112.093620 291 5306ft 0kts
28-Feb-17 17:34 38.744431 -112.093620 291 5306ft 0kts
28-Feb-17 17:35 38.744431 -112.093620 291 5306ft 0kts
28-Feb-17 17:36 38.744431 -112.093620 291 5306ft 0kts
28-Feb-17 17:37 38.744431 -112.093620 291 5306ft 0kts
28-Feb-17 17:38 38.744447 -112.094177 185 5306ft 9kts
28-Feb-17 17:39 38.722729 -112.105597 166 6026ft 102kts
28-Feb-17 17:40 38.736123 -112.081199 36 7066ft 107kts
28-Feb-17 17:41 38.735969 -112.052934 121 8198ft 93kts
28-Feb-17 17:42 38.718562 -112.029544 139 9193ft 94kts
28-Feb-17 17:43 38.696792 -112.010688 145 10104ft 97kts
28-Feb-17 17:44 38.672947 -111.994766 139 11074ft 97kts
28-Feb-17 17:45 38.655191 -111.964590 125 11532ft 132kts
28-Feb-17 17:46 38.628350 -111.924751 134 11585ft 152kts
28-Feb-17 17:47 38.593587 -111.889757 155 11477ft 163kts
28-Feb-17 17:48 38.546264 -111.895931 196 11407ft 174kts
28-Feb-17 17:49 38.498659 -111.908720 189 11364ft 176kts
28-Feb-17 17:50 38.450809 -111.917516 189 11410ft 174kts
28-Feb-17 17:51 38.400098 -111.927121 194 10706ft 195kts
28-Feb-17 17:52 38.347065 -111.942356 198 9827ft 193kts
28-Feb-17 17:53 38.296917 -111.960038 201 9433ft 179kts
28-Feb-17 17:54 38.250679 -111.977255 200 9437ft 170kts
28-Feb-17 17:55 38.206618 -111.994960 201 9425ft 166kts
28-Feb-17 17:56 38.160421 -111.998549 184 9428ft 166kts
28-Feb-17 17:57 38.114386 -112.000185 186 9463ft 166kts
28-Feb-17 17:58 38.068474 -112.003980 188 9510ft 166kts
28-Feb-17 17:59 38.021955 -112.007376 187 9440ft 171kts
28-Feb-17 18:00 37.975092 -112.011767 189 9415ft 168kts
28-Feb-17 18:01 37.928261 -112.015134 185 9389ft 167kts
28-Feb-17 18:02 37.881825 -112.017995 186 9379ft 169kts
28-Feb-17 18:03 37.835160 -112.021517 188 9397ft 168kts
28-Feb-17 18:04 37.794751 -112.041757 224 9433ft 157kts
28-Feb-17 18:05 37.759750 -112.076585 220 9430ft 161kts
28-Feb-17 18:06 37.732794 -112.118626 249 9448ft 153kts
28-Feb-17 18:07 37.715701 -112.160838 234 10313ft 124kts
28-Feb-17 18:08 37.693535 -112.185276 222 11420ft 109kts
28-Feb-17 18:09 37.661102 -112.209696 212 11552ft 154kts
28-Feb-17 18:10 37.620249 -112.234568 204 11481ft 172kts
28-Feb-17 18:11 37.574755 -112.252709 195 11529ft 167kts
28-Feb-17 18:12 37.528001 -112.260093 205 11528ft 169kts
28-Feb-17 18:13 37.486532 -112.284598 213 11524ft 168kts
28-Feb-17 18:14 37.439633 -112.287846 180 11521ft 171kts
28-Feb-17 18:15 37.392396 -112.285308 180 11521ft 170kts
28-Feb-17 18:16 37.345202 -112.282510 179 11521ft 170kts
28-Feb-17 18:17 37.298079 -112.279616 179 11521ft 170kts
28-Feb-17 18:18 37.250720 -112.276683 179 11522ft 170kts
28-Feb-17 18:19 37.203581 -112.273763 179 11522ft 170kts
28-Feb-17 18:20 37.156233 -112.270836 179 11522ft 170kts
28-Feb-17 18:21 37.109081 -112.267922 179 11522ft 170kts
28-Feb-17 18:22 37.061747 -112.265003 179 11522ft 170kts
28-Feb-17 18:23 37.014488 -112.262092 179 11522ft 170kts
28-Feb-17 18:24 36.967551 -112.259142 181 11522ft 165kts
28-Feb-17 18:25 36.922505 -112.256411 182 11523ft 162kts
28-Feb-17 18:26 36.877546 -112.253684 182 11522ft 161kts
28-Feb-17 18:27 36.832837 -112.250973 181 11523ft 162kts
28-Feb-17 18:28 36.787841 -112.248191 182 11523ft 162kts
28-Feb-17 18:29 36.742941 -112.245423 182 11523ft 162kts
28-Feb-17 18:30 36.698211 -112.242698 181 11523ft 162kts
28-Feb-17 18:31 36.652518 -112.237814 177 11303ft 172kts
28-Feb-17 18:32 36.609705 -112.215417 117 10369ft 191kts
28-Feb-17 18:33 36.589861 -112.157916 111 10403ft 176kts
28-Feb-17 18:34 36.560529 -112.115588 172 10554ft 159kts
28-Feb-17 18:35 36.516703 -112.109308 185 10647ft 158kts
28-Feb-17 18:36 36.473273 -112.114161 193 10716ft 159kts
28-Feb-17 18:37 36.430474 -112.129199 190 10478ft 163kts
28-Feb-17 18:38 36.387139 -112.125625 174 10444ft 155kts
28-Feb-17 18:39 36.344613 -112.119977 177 10291ft 158kts
28-Feb-17 18:40 36.304564 -112.130545 209 10252ft 148kts
28-Feb-17 18:41 36.290643 -112.140343 209 10242ft 148kts
28-Feb-17 18:42 36.257984 -112.163119 210 10287ft 145kts
28-Feb-17 18:43 36.229010 -112.182949 207 10283ft 138kts
28-Feb-17 18:44 36.196971 -112.203594 212 10523ft 120kts
28-Feb-17 18:45 36.168527 -112.226344 218 10617ft 124kts
28-Feb-17 18:46 36.141889 -112.252885 222 10718ft 124kts
28-Feb-17 18:47 36.109346 -112.267292 188 10619ft 136kts
28-Feb-17 18:48 36.078667 -112.268480 186 10725ft 131kts
28-Feb-17 18:49 36.042135 -112.235652 125 10425ft 162kts
28-Feb-17 18:50 36.025123 -112.183369 119 10003ft 149kts
28-Feb-17 18:51 36.012154 -112.145199 125 8994ft 143kts
28-Feb-17 18:52 36.012548 -112.146054 53 7474ft 137kts
28-Feb-17 18:53 36.000613 -112.120668 156 7338ft 115kts
28-Feb-17 18:54 35.974041 -112.123878 227 7014ft 75kts
28-Feb-17 18:55 35.959378 -112.139447 227 6617ft 60kts
28-Feb-17 18:56 35.956423 -112.141329 147 6609ft 0kts
28-Feb-17 18:57 35.957979 -112.138460 309 6609ft 0kts
28-Feb-17 18:58 35.957980 -112.138460 308 6609ft 0kts
28-Feb-17 18:59 35.957980 -112.138460 308 6609ft 0kts
28-Feb-17 19:00 35.957980 -112.138460 308 6609ft 0kts
28-Feb-17 19:01 35.957980 -112.138460 308 6609ft 0kts
28-Feb-17 19:02 35.957980 -112.138460 308 6609ft 0kts
28-Feb-17 19:03 35.957980 -112.138460 308 6609ft 0kts
28-Feb-17 19:04 35.957980 -112.138460 308 6609ft 0kts
28-Feb-17 19:05 35.957980 -112.138460 308 6609ft 0kts
28-Feb-17 19:06 35.957980 -112.138460 308 6609ft 0kts
28-Feb-17 19:07 35.957980 -112.138460 308 6609ft 0kts

Navigation Log

Ident Type
Flight plan parsing failed, navigation log unavailable